Impacts METAR Board INFO
IDs:

KPHL - Philadelphia Intl, PA, US

Updated at: 0806 UTC 17 Dec 2017
Potential Impact None Slight Moderate High
Time16/20Z 16/21Z 16/22Z 16/23Z 17/00Z 17/01Z 17/02Z 17/03Z 17/04Z 17/05Z 17/06Z 17/07Z 17/08Z
VIS10 10 10 10 10 10 10 10 10 10 10 10 10
CIG260 250 250 70 70 60 60 55 55 55 55 -- --
CoverBKNBKNBKNBKNBKNBKNOVCOVCOVCOVCOVCFEWFEW
FltCatVFRVFRVFRVFRVFRVFRVFRVFRVFRVFRVFRVFRVFR
WX--------------------------
WDir24023023023023024025022020023002700
WSpd13 10 11 13 9 10 7 4 6 3 0 3 0
WGst-- -- -- -- -- -- -- -- -- -- -- -- --
Raw hourly METARs
KPHL 161954Z 24013KT 10SM FEW060 SCT130 BKN260 06/M04 A3005 RMK AO2 PK WND 24027/1910 SLP175 T00561044 $
KPHL 162054Z 23010KT 10SM SCT060 BKN250 05/M04 A3005 RMK AO2 SLP176 T00501044 55001 $
KPHL 162154Z 23011KT 10SM SCT060 SCT140 BKN250 04/M04 A3007 RMK AO2 SLP182 T00441044 $
KPHL 162254Z 23013KT 10SM BKN070 05/M04 A3010 RMK AO2 SLP194 T00501039 $
KPHL 162354Z 23009KT 10SM BKN070 04/M03 A3013 RMK AO2 SLP201 T00391033 10056 20039 53025 $
KPHL 170054Z 24010KT 10SM BKN060 04/M03 A3015 RMK AO2 SLP211 T00391033 $
KPHL 170154Z 25007KT 10SM OVC060 04/M03 A3017 RMK AO2 SLP217 T00391028 $
KPHL 170254Z 22004KT 10SM OVC055 03/M02 A3019 RMK AO2 SLP221 T00331022 51020 $
KPHL 170354Z 20006KT 10SM OVC055 03/M03 A3020 RMK AO2 SLP224 T00331028 $
KPHL 170454Z 23003KT 10SM OVC055 03/M02 A3021 RMK AO2 SLP230 T00281017 400561061 $
KPHL 170554Z 00000KT 10SM OVC055 03/M02 A3021 RMK AO2 SLP230 T00281017 10039 20022 50008 $
KPHL 170654Z 27003KT 10SM FEW055 02/M02 A3023 RMK AO2 SLP235 T00221022 $
KPHL 170754Z 00000KT 10SM FEW055 02/M03 A3024 RMK AO2 SLP240 T00171033 $